Time;durP1;ratioP1;P1;durP2;ratioP2;P2;SDS_P1;SDS_P2;PMS_P1;PMS_P2;Temp;Humidity;BMP_temperature;BMP_pressure;BME280_temperature;BME280_humidity;BME280_pressure;Samples;Min_cycle;Max_cycle;Signal;HPM_P1;HPM_P2
2022/09/08 00:00:51;;;;;;;19.92;17.75;;;17.80;63.50;;;;;;4971307;28;20207;-63
2022/09/08 00:03:20;;;;;;;22.48;18.58;;;18.00;62.50;;;;;;4977882;28;20912;-63
2022/09/08 00:05:51;;;;;;;20.30;17.55;;;18.10;61.00;;;;;;4979952;28;20941;-62
2022/09/08 00:08:20;;;;;;;21.23;18.85;;;18.00;61.50;;;;;;4951467;28;20284;-60
2022/09/08 00:10:50;;;;;;;23.05;18.13;;;17.70;52.70;;;;;;4988015;28;20206;-60
2022/09/08 00:13:17;;;;;;;21.40;18.15;;;17.70;55.80;;;;;;4978673;28;20209;-61
2022/09/08 00:15:44;;;;;;;20.70;18.35;;;17.60;56.40;;;;;;4986433;28;20665;-61
2022/09/08 00:18:11;;;;;;;21.13;18.33;;;17.50;57.80;;;;;;4984570;28;20199;-60
2022/09/08 00:20:38;;;;;;;23.40;19.60;;;17.60;56.70;;;;;;4979597;28;20218;-60
2022/09/08 00:23:04;;;;;;;25.80;20.73;;;17.40;60.20;;;;;;4960143;28;20223;-60
2022/09/08 00:25:33;;;;;;;23.40;20.90;;;17.40;59.80;;;;;;4978143;28;20202;-60
2022/09/08 00:28:00;;;;;;;23.83;19.58;;;17.30;61.30;;;;;;4969481;28;20202;-60
2022/09/08 00:30:27;;;;;;;21.70;19.35;;;17.20;61.80;;;;;;4982620;28;21044;-61
2022/09/08 00:32:53;;;;;;;22.08;18.55;;;17.20;67.20;;;;;;4978020;28;20207;-61
2022/09/08 00:35:21;;;;;;;21.67;19.02;;;17.20;70.00;;;;;;4983180;28;20195;-62
2022/09/08 00:37:49;;;;;;;21.20;18.25;;;17.10;70.10;;;;;;4954787;28;20207;-61
2022/09/08 00:40:16;;;;;;;23.05;18.60;;;17.20;73.50;;;;;;4983055;28;20206;-61
2022/09/08 00:42:44;;;;;;;24.02;20.20;;;17.30;75.70;;;;;;4976823;28;20238;-61
2022/09/08 00:45:12;;;;;;;22.92;19.95;;;17.40;77.30;;;;;;4979332;28;20210;-62
2022/09/08 00:47:44;;;;;;;23.42;19.80;;;17.40;77.20;;;;;;4989679;28;20207;-61
2022/09/08 00:50:17;;;;;;;20.92;18.55;;;17.50;75.50;;;;;;4980485;28;23290;-61
2022/09/08 00:52:47;;;;;;;20.63;17.83;;;17.40;71.30;;;;;;4977406;28;20212;-61
2022/09/08 00:55:14;;;;;;;20.65;16.10;;;17.30;69.60;;;;;;4951889;28;20215;-61
2022/09/08 00:57:41;;;;;;;18.35;15.80;;;17.40;72.00;;;;;;4978225;28;20319;-61
2022/09/08 01:00:14;;;;;;;16.45;14.75;;;17.20;69.60;;;;;;4972512;28;20234;-61
2022/09/08 01:02:42;;;;;;;16.95;13.88;;;17.30;71.20;;;;;;4987002;28;20751;-61
2022/09/08 01:05:11;;;;;;;15.52;13.98;;;17.10;69.80;;;;;;4980847;28;20415;-61
2022/09/08 01:13:40;;;;;;;16.30;14.60;;;17.20;75.30;;;;;;4914137;28;20223;-61
2022/09/08 01:16:08;;;;;;;16.35;14.65;;;17.10;73.70;;;;;;4963078;28;20876;-61
2022/09/08 01:18:37;;;;;;;19.58;17.38;;;17.20;73.00;;;;;;4980307;28;20214;-61
2022/09/08 01:21:13;;;;;;;19.38;17.33;;;17.20;71.50;;;;;;4988093;28;20780;-61
2022/09/08 01:24:04;;;;;;;21.30;16.88;;;17.20;72.30;;;;;;4979853;28;20249;-62
2022/09/08 01:26:49;;;;;;;22.08;17.33;;;17.20;72.70;;;;;;4948187;28;20696;-62
2022/09/08 01:29:19;;;;;;;20.85;18.65;;;17.20;73.80;;;;;;4975988;28;20231;-61
2022/09/08 01:31:50;;;;;;;21.85;18.98;;;17.20;75.30;;;;;;4983771;28;20206;-61
2022/09/08 01:34:17;;;;;;;21.13;17.48;;;17.20;80.40;;;;;;4981019;28;20207;-61
2022/09/08 01:36:43;;;;;;;19.88;17.60;;;17.30;79.60;;;;;;4983833;28;20665;-61
2022/09/08 01:39:10;;;;;;;20.35;18.15;;;17.30;79.30;;;;;;4981378;28;20584;-61
2022/09/08 01:41:37;;;;;;;24.52;16.80;;;17.20;78.70;;;;;;4962484;28;20226;-61
2022/09/08 01:44:04;;;;;;;18.90;16.63;;;17.30;79.60;;;;;;4975988;28;20203;-61
2022/09/08 01:46:32;;;;;;;18.73;16.73;;;17.40;78.60;;;;;;4971900;28;20207;-61
2022/09/08 01:48:59;;;;;;;23.98;17.05;;;17.30;77.50;;;;;;4986791;28;20223;-61
2022/09/08 01:51:26;;;;;;;18.83;16.83;;;;;;;;;;4990485;28;20199;-61
2022/09/08 01:53:56;;;;;;;19.90;17.38;;;17.20;73.30;;;;;;4979879;28;21098;-61
2022/09/08 01:56:23;;;;;;;18.63;16.70;;;17.10;74.30;;;;;;4966625;28;20838;-61
2022/09/08 01:58:50;;;;;;;20.10;17.45;;;18.00;80.00;;;;;;4968143;28;20245;-62
2022/09/08 02:01:17;;;;;;;22.10;17.65;;;17.00;77.40;;;;;;4971938;28;20248;-61
2022/09/08 02:03:45;;;;;;;20.00;17.63;;;17.00;78.00;;;;;;4985025;28;20676;-61
2022/09/08 02:06:11;;;;;;;18.55;16.20;;;16.90;80.30;;;;;;4988448;28;20230;-61
2022/09/08 02:08:38;;;;;;;19.92;16.27;;;16.90;82.20;;;;;;4986110;28;20219;-61
2022/09/08 02:11:05;;;;;;;18.75;16.75;;;16.90;90.00;;;;;;4957139;28;20225;-62
2022/09/08 02:13:33;;;;;;;18.42;16.38;;;16.90;85.10;;;;;;4981645;28;21069;-62
2022/09/08 02:16:02;;;;;;;18.17;16.33;;;17.00;88.40;;;;;;4981877;28;20209;-61
2022/09/08 02:18:30;;;;;;;20.38;17.35;;;17.00;86.10;;;;;;4980190;28;20209;-61
2022/09/08 02:21:08;;;;;;;19.50;17.38;;;16.90;90.10;;;;;;4986500;28;20206;-61
2022/09/08 02:23:35;;;;;;;21.60;16.55;;;;;;;;;;4986251;28;20205;-61
2022/09/08 02:26:03;;;;;;;17.75;15.85;;;17.00;89.80;;;;;;4957595;28;20211;-62
2022/09/08 02:28:30;;;;;;;17.27;15.25;;;17.10;90.30;;;;;;4975124;28;20699;-61
2022/09/08 02:31:02;;;;;;;19.70;15.95;;;17.00;86.10;;;;;;4976791;28;20247;-61
2022/09/08 02:33:30;;;;;;;17.38;15.52;;;17.00;83.20;;;;;;4970890;28;20207;-61
2022/09/08 02:35:57;;;;;;;17.52;15.07;;;17.00;83.40;;;;;;4986635;28;20207;-61
2022/09/08 02:38:26;;;;;;;16.20;14.52;;;16.60;79.70;;;;;;4985220;28;21115;-62
2022/09/08 02:40:53;;;;;;;16.00;14.30;;;16.70;80.00;;;;;;4978977;28;20217;-61
2022/09/08 02:43:21;;;;;;;20.55;14.75;;;16.50;78.90;;;;;;4968733;28;20246;-61
2022/09/08 02:45:49;;;;;;;16.95;14.20;;;16.80;81.50;;;;;;4984360;28;20205;-61
2022/09/08 02:48:16;;;;;;;16.95;15.13;;;16.80;86.50;;;;;;4978476;28;20210;-61
2022/09/08 02:50:43;;;;;;;15.95;14.23;;;16.80;88.90;;;;;;4975962;28;20238;-61
2022/09/08 02:53:10;;;;;;;16.75;15.02;;;16.90;88.40;;;;;;4985419;28;20609;-61
2022/09/08 02:55:40;;;;;;;24.00;15.30;;;18.90;93.10;;;;;;4984738;28;20202;-61
2022/09/08 02:58:07;;;;;;;17.98;14.65;;;17.20;91.90;;;;;;4962735;28;20325;-61
2022/09/08 03:00:34;;;;;;;18.45;15.82;;;17.20;92.40;;;;;;4978046;28;20245;-62
2022/09/08 03:03:02;;;;;;;16.63;14.45;;;;;;;;;;4976677;28;20211;-61
2022/09/08 03:05:29;;;;;;;19.02;15.52;;;17.30;93.00;;;;;;4977543;28;20214;-61
2022/09/08 03:07:56;;;;;;;20.48;14.75;;;17.40;93.90;;;;;;4984848;28;20202;-62
2022/09/08 03:10:23;;;;;;;17.63;14.80;;;17.30;93.00;;;;;;4987296;28;20227;-61
2022/09/08 03:12:53;;;;;;;17.85;15.40;;;17.60;93.80;;;;;;4979194;28;20211;-61
2022/09/08 03:15:21;;;;;;;16.80;15.10;;;17.40;93.40;;;;;;4951646;28;20288;-61
2022/09/08 03:17:48;;;;;;;16.98;14.90;;;17.40;93.00;;;;;;4989028;28;20686;-61
2022/09/08 03:20:15;;;;;;;16.63;14.43;;;17.40;93.20;;;;;;4976909;28;20202;-62
2022/09/08 03:22:42;;;;;;;18.33;15.18;;;17.40;93.60;;;;;;4974254;28;20203;-61
2022/09/08 03:25:10;;;;;;;17.23;14.95;;;17.40;93.80;;;;;;4985248;28;20572;-61
2022/09/08 03:27:38;;;;;;;19.42;14.55;;;17.30;93.00;;;;;;4965854;28;20198;-62
2022/09/08 03:30:08;;;;;;;16.88;15.07;;;17.50;94.20;;;;;;4963855;28;21612;-62
2022/09/08 03:32:35;;;;;;;17.38;14.93;;;17.30;93.50;;;;;;4972775;28;20205;-61
2022/09/08 03:35:02;;;;;;;15.93;13.80;;;17.30;93.70;;;;;;4972166;28;20230;-61
2022/09/08 03:37:29;;;;;;;16.67;14.90;;;17.50;94.90;;;;;;4987550;28;20205;-62
2022/09/08 03:39:56;;;;;;;22.13;13.90;;;17.30;93.80;;;;;;4982639;28;20192;-61
2022/09/08 03:42:23;;;;;;;15.73;14.10;;;17.40;95.10;;;;;;4974602;28;20230;-61
2022/09/08 03:44:49;;;;;;;20.42;15.52;;;17.30;95.90;;;;;;4984690;28;20213;-62
2022/09/08 03:47:17;;;;;;;16.77;15.07;;;17.30;94.80;;;;;;4957402;28;20775;-62
2022/09/08 03:49:46;;;;;;;17.58;15.25;;;17.00;96.30;;;;;;4987482;28;20227;-61
2022/09/08 03:52:13;;;;;;;16.23;14.52;;;17.30;94.90;;;;;;4981123;28;20315;-61
2022/09/08 03:54:48;;;;;;;18.45;15.05;;;17.40;96.50;;;;;;4985010;28;20230;-61
2022/09/08 03:57:17;;;;;;;18.77;15.25;;;17.30;95.90;;;;;;4986689;28;20281;-61
2022/09/08 03:59:44;;;;;;;16.65;14.90;;;18.40;97.70;;;;;;4967766;28;20491;-61
2022/09/08 04:02:11;;;;;;;18.27;14.32;;;17.30;96.00;;;;;;4951223;28;20689;-62
2022/09/08 04:04:39;;;;;;;15.77;14.13;;;17.40;96.30;;;;;;4979711;28;20214;-62
2022/09/08 04:07:07;;;;;;;17.95;15.20;;;18.30;96.50;;;;;;4975809;28;20231;-62
2022/09/08 04:09:34;;;;;;;17.98;15.45;;;17.30;96.20;;;;;;4982098;28;20218;-61
2022/09/08 04:12:01;;;;;;;17.42;15.10;;;17.20;97.40;;;;;;4983994;28;20215;-61
2022/09/08 04:14:28;;;;;;;19.35;15.27;;;17.30;97.70;;;;;;4968989;28;20206;-61
2022/09/08 04:16:56;;;;;;;17.73;15.85;;;;;;;;;;4962547;28;20231;-62
2022/09/08 04:19:22;;;;;;;18.95;14.65;;;17.50;97.20;;;;;;4961638;28;20207;-61
2022/09/08 04:21:51;;;;;;;17.40;14.77;;;;;;;;;;4981988;28;20205;-61
2022/09/08 04:24:19;;;;;;;17.60;14.90;;;17.40;97.30;;;;;;4980101;28;20218;-61
2022/09/08 04:26:46;;;;;;;16.48;14.73;;;17.40;97.60;;;;;;4980314;28;20679;-61
2022/09/08 04:29:13;;;;;;;17.73;14.85;;;;;;;;;;4979129;28;20206;-61
2022/09/08 04:31:40;;;;;;;17.08;15.27;;;17.50;97.40;;;;;;4962060;28;21873;-62
2022/09/08 04:34:07;;;;;;;16.48;14.77;;;17.50;98.50;;;;;;4968685;28;20453;-61
2022/09/08 04:36:34;;;;;;;16.95;15.18;;;17.50;97.50;;;;;;4982560;28;20223;-62
2022/09/08 04:39:03;;;;;;;17.45;15.50;;;17.50;97.40;;;;;;4977379;28;20238;-61
2022/09/08 04:41:31;;;;;;;17.20;15.35;;;17.50;97.40;;;;;;4972231;28;20211;-62
2022/09/08 04:44:00;;;;;;;18.15;15.75;;;17.40;97.70;;;;;;4976460;28;20241;-62
2022/09/08 04:46:28;;;;;;;16.83;14.13;;;17.50;97.60;;;;;;4987473;28;20203;-61
2022/09/08 04:48:55;;;;;;;17.23;14.30;;;17.50;97.20;;;;;;4958578;28;20354;-61
2022/09/08 04:51:23;;;;;;;18.02;14.85;;;17.50;96.70;;;;;;4979028;28;20235;-61
2022/09/08 04:53:52;;;;;;;16.63;14.85;;;17.50;96.90;;;;;;4966950;28;20230;-61
2022/09/08 04:56:21;;;;;;;17.08;13.63;;;17.50;96.90;;;;;;4977962;28;20334;-61
2022/09/08 04:58:48;;;;;;;17.35;14.82;;;17.40;97.80;;;;;;4973083;28;20235;-61
2022/09/08 05:01:19;;;;;;;16.48;14.55;;;17.50;97.00;;;;;;4971497;28;20218;-62
2022/09/08 05:03:47;;;;;;;21.15;15.55;;;17.20;98.40;;;;;;4951061;28;21665;-61
2022/09/08 05:06:16;;;;;;;16.00;14.27;;;17.40;96.60;;;;;;4982839;28;20222;-62
2022/09/08 05:08:44;;;;;;;16.45;14.07;;;17.50;97.00;;;;;;4978732;28;20207;-61
2022/09/08 05:11:10;;;;;;;19.05;14.15;;;17.40;96.60;;;;;;4976084;28;20571;-60
2022/09/08 05:13:39;;;;;;;18.33;14.80;;;17.20;96.50;;;;;;4983410;28;20249;-60
2022/09/08 05:16:08;;;;;;;19.83;15.02;;;17.20;96.20;;;;;;4969898;28;20237;-60
2022/09/08 05:18:35;;;;;;;21.85;14.63;;;;;;;;;;4962378;28;20218;-61
2022/09/08 05:21:03;;;;;;;20.13;14.18;;;17.10;95.90;;;;;;4981743;28;20237;-60
2022/09/08 05:23:30;;;;;;;18.85;15.65;;;17.30;95.60;;;;;;4974790;28;20206;-61
2022/09/08 05:26:00;;;;;;;16.55;14.80;;;17.30;94.90;;;;;;4981372;28;20532;-60
2022/09/08 05:28:29;;;;;;;18.20;15.23;;;17.20;95.50;;;;;;4989263;28;20309;-60
2022/09/08 05:30:57;;;;;;;18.52;15.32;;;17.20;95.10;;;;;;4984254;28;20234;-61
2022/09/08 05:33:24;;;;;;;20.23;15.98;;;17.30;96.10;;;;;;4990359;28;20233;-61
2022/09/08 05:35:52;;;;;;;17.10;14.82;;;17.30;95.40;;;;;;4967546;28;20444;-60
2022/09/08 05:38:20;;;;;;;21.88;16.55;;;17.40;96.90;;;;;;4990707;28;20199;-60
2022/09/08 05:40:47;;;;;;;23.67;16.85;;;17.40;96.30;;;;;;4985327;28;20764;-61
2022/09/08 05:43:18;;;;;;;21.58;17.15;;;17.30;96.50;;;;;;4994604;28;20206;-61
2022/09/08 05:45:45;;;;;;;20.75;16.73;;;17.30;97.10;;;;;;4976008;28;20214;-60
2022/09/08 05:48:14;;;;;;;20.48;18.15;;;17.30;97.70;;;;;;4993210;28;20213;-61
2022/09/08 05:50:42;;;;;;;20.08;17.17;;;17.40;99.60;;;;;;4956072;28;20243;-61
2022/09/08 05:53:09;;;;;;;18.30;16.38;;;17.40;98.20;;;;;;4992771;28;20192;-61
2022/09/08 05:55:36;;;;;;;19.15;16.75;;;17.20;98.70;;;;;;4982649;28;20204;-60
2022/09/08 05:58:03;;;;;;;17.88;15.70;;;17.40;98.20;;;;;;4986322;28;20207;-61
2022/09/08 06:00:29;;;;;;;18.52;15.57;;;17.20;98.70;;;;;;4985357;28;20207;-61
2022/09/08 06:02:56;;;;;;;17.73;15.75;;;17.40;97.80;;;;;;4986053;28;20631;-60
2022/09/08 06:05:25;;;;;;;20.05;15.77;;;17.40;97.90;;;;;;4985436;28;20657;-61
2022/09/08 06:07:51;;;;;;;20.00;16.02;;;17.30;98.00;;;;;;4972450;28;20712;-61
2022/09/08 06:10:18;;;;;;;20.45;15.82;;;17.40;97.30;;;;;;4990780;28;20231;-61
2022/09/08 06:12:46;;;;;;;18.35;15.55;;;17.60;97.80;;;;;;4977776;28;20214;-61
2022/09/08 06:15:13;;;;;;;18.90;16.25;;;;;;;;;;4988470;28;20204;-61
2022/09/08 06:17:40;;;;;;;17.48;14.80;;;17.40;96.90;;;;;;4979945;28;20294;-61
2022/09/08 06:20:08;;;;;;;16.33;14.27;;;17.60;97.70;;;;;;4991395;28;20207;-60
2022/09/08 06:22:36;;;;;;;15.95;13.75;;;17.60;96.90;;;;;;4967414;28;20206;-61
2022/09/08 06:25:04;;;;;;;19.30;15.00;;;17.60;97.10;;;;;;4987645;28;20211;-61
2022/09/08 06:27:43;;;;;;;17.55;14.90;;;17.50;96.60;;;;;;4976988;28;20756;-61
2022/09/08 06:30:12;;;;;;;16.83;14.68;;;17.30;96.40;;;;;;4988244;28;20231;-61
2022/09/08 06:32:43;;;;;;;18.25;14.65;;;17.50;95.90;;;;;;4978906;28;20215;-61
2022/09/08 06:35:13;;;;;;;18.90;14.60;;;17.40;96.20;;;;;;4992484;28;20203;-61
2022/09/08 06:37:49;;;;;;;18.73;14.43;;;17.50;95.40;;;;;;4966078;28;20226;-61
2022/09/08 06:40:22;;;;;;;15.45;13.68;;;17.40;96.70;;;;;;4985637;28;20198;-61
2022/09/08 06:42:55;;;;;;;16.10;13.98;;;17.50;95.50;;;;;;4973011;28;21007;-62
2022/09/08 06:45:27;;;;;;;16.15;14.18;;;17.60;95.80;;;;;;4991056;28;20203;-61
2022/09/08 06:48:20;;;;;;;20.63;13.98;;;17.50;94.80;;;;;;4973889;28;20208;-61
2022/09/08 06:51:01;;;;;;;16.52;14.38;;;17.60;94.90;;;;;;4968721;28;20230;-61
2022/09/08 06:53:35;;;;;;;16.85;13.32;;;17.60;94.90;;;;;;4962142;28;20952;-62
2022/09/08 06:56:13;;;;;;;15.27;13.68;;;17.60;94.20;;;;;;4982136;28;20785;-61
2022/09/08 06:58:41;;;;;;;17.90;13.18;;;17.80;93.80;;;;;;4965691;28;20227;-60
2022/09/08 07:01:19;;;;;;;15.35;12.55;;;17.90;93.20;;;;;;4981478;28;20223;-62
2022/09/08 07:04:01;;;;;;;17.35;12.98;;;17.90;91.90;;;;;;4969432;28;20237;-60
2022/09/08 07:06:33;;;;;;;16.30;12.70;;;17.80;89.10;;;;;;4979880;28;20222;-61
2022/09/08 07:09:21;;;;;;;14.18;12.73;;;18.00;86.60;;;;;;4957179;28;20230;-61
2022/09/08 07:11:58;;;;;;;17.10;12.68;;;17.80;85.50;;;;;;4981528;28;20317;-61
2022/09/08 07:14:44;;;;;;;14.38;12.20;;;17.70;84.80;;;;;;4961362;28;20206;-61
2022/09/08 07:17:20;;;;;;;15.20;13.40;;;17.70;85.20;;;;;;4975445;28;20221;-61
2022/09/08 07:19:50;;;;;;;14.40;12.38;;;17.60;86.10;;;;;;4971907;28;20237;-61
2022/09/08 07:22:27;;;;;;;15.77;12.40;;;17.60;86.80;;;;;;4980488;28;20227;-61
2022/09/08 07:25:07;;;;;;;14.57;12.25;;;17.70;86.90;;;;;;4965697;28;20253;-61
2022/09/08 07:27:35;;;;;;;15.93;12.82;;;17.60;87.90;;;;;;4983091;28;20199;-61
2022/09/08 07:30:16;;;;;;;17.13;13.52;;;17.60;87.80;;;;;;4966912;28;20218;-61
2022/09/08 07:32:46;;;;;;;17.65;13.55;;;17.60;88.60;;;;;;4984708;28;20239;-60
2022/09/08 07:35:22;;;;;;;17.75;12.85;;;17.90;90.70;;;;;;4976807;28;20226;-61
2022/09/08 07:37:52;;;;;;;14.98;13.02;;;17.70;90.00;;;;;;4977156;28;20211;-61
2022/09/08 07:40:28;;;;;;;13.40;12.00;;;17.70;90.00;;;;;;4955459;28;20222;-61
2022/09/08 07:42:56;;;;;;;13.80;12.40;;;17.70;90.20;;;;;;4982500;28;20225;-61
2022/09/08 07:45:28;;;;;;;15.43;12.18;;;17.70;90.10;;;;;;4974934;28;20211;-61
2022/09/08 07:48:04;;;;;;;17.60;12.57;;;17.80;90.10;;;;;;4985394;28;20201;-61
2022/09/08 07:53:32;;;;;;;17.55;12.45;;;17.80;90.20;;;;;;4979294;28;20206;-61
2022/09/08 07:56:08;;;;;;;13.95;11.95;;;17.80;89.30;;;;;;4962911;28;20249;-61
2022/09/08 07:58:42;;;;;;;18.17;12.32;;;18.00;90.00;;;;;;4984835;28;20214;-61
2022/09/08 08:01:16;;;;;;;15.70;11.68;;;17.90;88.20;;;;;;4978491;28;20231;-61
2022/09/08 08:03:55;;;;;;;14.00;12.15;;;18.20;89.20;;;;;;4991932;28;20208;-61
2022/09/08 08:06:35;;;;;;;16.42;12.13;;;17.70;88.10;;;;;;4979352;28;20199;-61
2022/09/08 08:09:12;;;;;;;20.17;13.77;;;18.00;85.40;;;;;;4982551;28;20407;-61
2022/09/08 08:11:47;;;;;;;14.02;12.05;;;18.20;85.80;;;;;;4978623;28;20226;-61
2022/09/08 08:14:24;;;;;;;16.48;11.90;;;18.00;84.60;;;;;;4984464;28;20256;-61
2022/09/08 08:16:59;;;;;;;12.95;11.45;;;18.00;82.80;;;;;;4978913;28;20234;-60
2022/09/08 08:19:39;;;;;;;17.75;12.98;;;18.00;83.10;;;;;;4985966;28;20203;-61
2022/09/08 08:22:15;;;;;;;15.80;12.25;;;17.90;81.90;;;;;;4979272;28;20293;-61
2022/09/08 08:24:54;;;;;;;15.73;11.98;;;17.90;80.30;;;;;;4988546;28;20227;-61
2022/09/08 08:27:29;;;;;;;13.13;11.63;;;17.90;78.10;;;;;;4962510;28;20217;-61
2022/09/08 08:30:13;;;;;;;14.23;12.13;;;17.90;78.50;;;;;;4993185;28;20240;-62
2022/09/08 08:32:44;;;;;;;16.30;12.57;;;17.90;79.20;;;;;;4982855;28;21143;-61
2022/09/08 08:35:18;;;;;;;15.70;11.75;;;18.10;79.90;;;;;;4977514;28;20196;-61
2022/09/08 08:37:49;;;;;;;19.05;11.63;;;18.10;79.80;;;;;;4988309;28;20214;-60
2022/09/08 08:40:30;;;;;;;12.52;11.32;;;18.00;78.00;;;;;;4970119;28;21212;-62
2022/09/08 08:43:23;;;;;;;18.98;11.95;;;18.10;78.70;;;;;;4963013;28;20203;-61
2022/09/08 08:46:05;;;;;;;15.63;11.30;;;18.10;78.50;;;;;;4991618;28;20989;-61
2022/09/08 08:48:46;;;;;;;12.35;11.02;;;18.30;79.70;;;;;;4982656;28;20587;-61
2022/09/08 08:51:30;;;;;;;12.45;11.07;;;18.20;78.70;;;;;;4976305;28;20235;-62
2022/09/08 08:54:18;;;;;;;13.20;11.80;;;18.30;78.70;;;;;;4990732;28;20226;-62
2022/09/08 08:56:49;;;;;;;12.77;11.38;;;18.40;79.50;;;;;;4987593;28;20241;-61
2022/09/08 09:00:06;;;;;;;13.07;11.68;;;18.20;77.90;;;;;;4965234;28;21116;-61
2022/09/08 09:03:12;;;;;;;12.10;10.80;;;18.30;75.10;;;;;;4974589;28;20437;-61
2022/09/08 09:06:14;;;;;;;11.32;10.23;;;18.30;75.80;;;;;;4989466;28;20635;-61
2022/09/08 09:09:09;;;;;;;12.60;10.98;;;18.20;77.20;;;;;;4942391;28;20236;-60
2022/09/08 09:11:53;;;;;;;12.40;11.10;;;;;;;;;;4988359;28;20284;-61
2022/09/08 09:14:42;;;;;;;15.07;11.35;;;18.40;74.20;;;;;;4971324;28;20206;-61
2022/09/08 09:17:32;;;;;;;13.30;11.30;;;18.40;74.50;;;;;;4986977;28;20563;-61
2022/09/08 09:20:15;;;;;;;14.38;11.30;;;18.30;77.70;;;;;;4980893;28;20206;-61
2022/09/08 09:22:53;;;;;;;14.65;12.30;;;18.30;76.70;;;;;;4987342;28;20241;-61
2022/09/08 09:25:29;;;;;;;15.68;12.48;;;18.30;79.00;;;;;;4976611;28;20206;-61
2022/09/08 09:28:14;;;;;;;13.77;12.35;;;18.30;82.80;;;;;;4964129;28;20587;-61
2022/09/08 09:30:48;;;;;;;13.65;12.25;;;18.30;84.80;;;;;;4985554;28;22259;-61
2022/09/08 09:33:40;;;;;;;15.52;13.45;;;18.30;90.00;;;;;;4974040;28;20207;-61
2022/09/08 09:36:31;;;;;;;14.93;13.35;;;18.30;88.80;;;;;;4977811;28;20223;-61
2022/09/08 09:39:20;;;;;;;17.92;13.55;;;18.30;90.00;;;;;;4983797;28;20885;-61
2022/09/08 09:42:03;;;;;;;14.60;13.07;;;18.30;90.40;;;;;;4991238;28;20257;-62
2022/09/08 09:44:57;;;;;;;15.23;13.63;;;18.30;91.50;;;;;;4961180;28;20218;-62
2022/09/08 09:47:50;;;;;;;14.32;12.82;;;18.00;92.00;;;;;;4985057;28;20218;-61
2022/09/08 09:50:46;;;;;;;15.20;13.60;;;18.20;91.40;;;;;;4976137;28;20302;-62
2022/09/08 09:53:26;;;;;;;16.05;14.23;;;18.30;92.90;;;;;;4988464;28;20253;-61
2022/09/08 09:56:26;;;;;;;15.25;13.63;;;18.10;92.50;;;;;;4980968;28;20210;-61
2022/09/08 09:59:25;;;;;;;15.65;13.98;;;18.10;93.20;;;;;;4958879;28;20246;-61
2022/09/08 10:02:14;;;;;;;16.77;14.98;;;18.20;94.20;;;;;;4984130;28;20664;-61
2022/09/08 10:05:12;;;;;;;16.80;14.45;;;18.00;95.00;;;;;;4975397;28;20204;-62
2022/09/08 10:08:10;;;;;;;18.23;13.80;;;17.80;95.80;;;;;;4984484;28;20199;-61
2022/09/08 10:11:01;;;;;;;14.07;11.43;;;18.30;95.60;;;;;;4981403;28;20203;-62
2022/09/08 10:14:00;;;;;;;20.33;13.18;;;18.30;95.70;;;;;;4990441;28;20850;-61
2022/09/08 10:17:00;;;;;;;15.30;12.70;;;18.50;92.50;;;;;;4987609;28;20203;-62
2022/09/08 10:19:50;;;;;;;15.63;14.02;;;18.60;91.30;;;;;;4983763;28;20256;-62
2022/09/08 10:22:53;;;;;;;15.40;13.80;;;18.60;91.20;;;;;;4980271;28;20906;-62
2022/09/08 10:25:52;;;;;;;17.90;13.90;;;18.60;91.50;;;;;;4956124;28;20195;-63
2022/09/08 10:28:52;;;;;;;15.77;14.15;;;18.50;91.90;;;;;;4982703;28;20214;-62
2022/09/08 10:31:51;;;;;;;17.75;14.95;;;18.30;95.00;;;;;;4969994;28;20207;-62
2022/09/08 10:34:49;;;;;;;18.10;14.90;;;18.30;95.80;;;;;;4993924;28;20736;-62
2022/09/08 10:37:39;;;;;;;24.10;15.60;;;18.40;96.60;;;;;;4980699;28;20241;-62
2022/09/08 10:40:26;;;;;;;18.27;16.33;;;18.40;96.90;;;;;;4988014;28;20845;-62
2022/09/08 10:42:55;;;;;;;17.55;15.65;;;18.50;97.20;;;;;;4981045;28;20203;-62
2022/09/08 10:45:46;;;;;;;20.63;16.05;;;18.50;98.10;;;;;;4989984;28;20691;-61
2022/09/08 10:48:54;;;;;;;19.92;17.83;;;18.60;98.50;;;;;;4971457;28;20226;-62
2022/09/08 10:52:08;;;;;;;24.27;16.90;;;18.60;99.20;;;;;;4993720;28;20194;-62
2022/09/08 10:55:20;;;;;;;20.05;17.77;;;18.90;99.90;;;;;;4949534;28;20677;-63
2022/09/08 10:58:03;;;;;;;24.52;17.92;;;18.70;99.90;;;;;;4983052;28;20334;-62
2022/09/08 11:00:38;;;;;;;20.73;18.05;;;18.70;99.90;;;;;;4987584;28;20700;-62
2022/09/08 11:03:32;;;;;;;21.33;18.27;;;18.70;99.90;;;;;;4952003;28;20300;-62
2022/09/08 11:06:06;;;;;;;20.95;17.35;;;17.90;99.90;;;;;;4980125;28;20222;-63
2022/09/08 11:09:06;;;;;;;19.75;17.50;;;18.70;99.90;;;;;;4986865;28;20672;-63
2022/09/08 11:12:04;;;;;;;20.98;17.88;;;18.60;99.90;;;;;;4986615;28;20637;-63
2022/09/08 11:15:12;;;;;;;21.73;17.58;;;18.80;99.90;;;;;;4979918;28;20211;-63
2022/09/08 11:17:46;;;;;;;28.63;18.92;;;18.80;99.90;;;;;;4977934;28;20210;-63
2022/09/08 11:20:24;;;;;;;20.20;18.02;;;18.80;99.90;;;;;;4974458;28;20283;-63
2022/09/08 11:23:21;;;;;;;23.35;18.40;;;18.80;99.90;;;;;;4980244;28;20210;-63
2022/09/08 11:26:04;;;;;;;23.85;19.58;;;18.80;99.90;;;;;;4979545;28;20226;-63
2022/09/08 11:28:45;;;;;;;22.70;18.65;;;18.70;99.90;;;;;;4970484;28;20222;-63
2022/09/08 11:31:25;;;;;;;20.85;17.88;;;18.90;99.90;;;;;;4988910;28;20207;-63
2022/09/08 11:34:16;;;;;;;20.63;18.40;;;19.00;99.90;;;;;;4963579;28;20221;-63
2022/09/08 11:37:26;;;;;;;21.15;18.67;;;19.00;99.90;;;;;;4929666;28;20594;-64
2022/09/08 11:40:18;;;;;;;21.02;18.00;;;19.00;99.90;;;;;;4922190;28;20212;-63
2022/09/08 11:43:12;;;;;;;18.42;15.80;;;19.10;99.90;;;;;;4974332;28;20230;-63
2022/09/08 11:45:53;;;;;;;18.70;16.73;;;18.90;99.90;;;;;;4964942;28;20231;-64
2022/09/08 11:48:51;;;;;;;17.08;13.77;;;18.90;99.90;;;;;;4979022;28;20210;-63
2022/09/08 11:51:35;;;;;;;18.25;14.52;;;18.70;99.90;;;;;;4962766;28;20706;-63
2022/09/08 11:54:23;;;;;;;17.05;15.10;;;18.70;99.90;;;;;;4976678;28;20221;-63
2022/09/08 11:57:13;;;;;;;15.70;13.07;;;18.60;99.90;;;;;;4961306;28;20235;-63
2022/09/08 11:59:56;;;;;;;13.43;11.45;;;18.50;99.90;;;;;;4958921;28;20263;-64
2022/09/08 12:02:46;;;;;;;12.25;10.52;;;18.50;99.90;;;;;;4957960;28;20234;-63
2022/09/08 12:05:25;;;;;;;11.43;10.23;;;18.40;99.90;;;;;;4956739;28;20204;-63
2022/09/08 12:08:13;;;;;;;13.15;10.98;;;18.50;99.90;;;;;;4970828;28;20268;-64
2022/09/08 12:11:00;;;;;;;13.93;12.02;;;18.40;99.90;;;;;;4974548;28;20223;-63
2022/09/08 12:13:36;;;;;;;13.55;11.02;;;18.50;99.90;;;;;;4973723;28;20225;-63
2022/09/08 12:16:20;;;;;;;12.27;10.98;;;18.50;99.90;;;;;;4980738;28;20210;-63
2022/09/08 12:19:22;;;;;;;13.52;12.13;;;18.40;99.90;;;;;;4978900;28;20207;-63
2022/09/08 12:22:06;;;;;;;16.70;13.15;;;18.60;99.90;;;;;;4954902;28;20218;-64
2022/09/08 12:24:46;;;;;;;14.82;13.32;;;18.80;99.90;;;;;;4973623;28;20207;-63
2022/09/08 12:27:25;;;;;;;14.40;12.93;;;19.90;99.90;;;;;;4986756;28;20199;-64
2022/09/08 12:30:07;;;;;;;17.40;14.60;;;18.80;99.90;;;;;;4976216;28;20599;-64
2022/09/08 12:33:08;;;;;;;16.85;14.38;;;18.90;99.90;;;;;;4972683;28;20231;-63
2022/09/08 12:35:39;;;;;;;18.70;14.65;;;20.00;99.90;;;;;;4934427;28;20710;-63
2022/09/08 12:38:42;;;;;;;14.93;13.40;;;18.90;99.90;;;;;;4975222;28;20223;-64
2022/09/08 12:41:31;;;;;;;12.73;11.43;;;18.20;99.90;;;;;;4982514;28;20221;-64
2022/09/08 12:44:08;;;;;;;13.98;11.75;;;18.70;99.90;;;;;;4970065;28;20211;-63
2022/09/08 12:46:45;;;;;;;13.35;11.13;;;18.60;99.90;;;;;;4962554;28;20226;-64
2022/09/08 12:49:40;;;;;;;11.75;10.27;;;18.50;99.90;;;;;;4984332;28;20673;-63
2022/09/08 12:52:17;;;;;;;16.70;11.65;;;18.50;99.90;;;;;;4950718;28;20231;-65
2022/09/08 12:54:57;;;;;;;12.35;11.02;;;18.50;99.90;;;;;;4965242;28;20227;-64
2022/09/08 13:00:38;;;;;;;11.45;9.40;;;18.50;99.90;;;;;;4924726;28;20715;-63
2022/09/08 13:03:27;;;;;;;13.05;8.63;;;18.50;99.90;;;;;;4958211;28;21841;-64
2022/09/08 13:06:13;;;;;;;8.02;5.82;;;18.40;99.90;;;;;;4945419;28;20226;-65
2022/09/08 13:08:53;;;;;;;8.05;6.53;;;18.40;99.90;;;;;;4979494;28;20223;-65
2022/09/08 13:11:35;;;;;;;10.48;8.88;;;18.30;99.90;;;;;;4967673;28;20218;-63
2022/09/08 13:14:06;;;;;;;7.22;6.53;;;18.30;99.90;;;;;;4958889;28;20231;-65
2022/09/08 13:16:44;;;;;;;5.72;5.13;;;18.20;99.90;;;;;;4957893;28;21997;-65
2022/09/08 13:19:22;;;;;;;6.03;4.90;;;18.00;99.90;;;;;;4972101;28;20707;-64
2022/09/08 13:22:23;;;;;;;4.65;4.10;;;18.00;99.90;;;;;;4969715;28;20795;-65
2022/09/08 13:24:59;;;;;;;5.03;4.53;;;18.00;99.90;;;;;;4982644;28;20199;-66
2022/09/08 13:27:37;;;;;;;6.85;4.95;;;18.00;99.90;;;;;;4965189;28;20203;-65